Time;durP1;ratioP1;P1;durP2;ratioP2;P2;SDS_P1;SDS_P2;PMS_P1;PMS_P2;Temp;Humidity;BMP_temperature;BMP_pressure;BME280_temperature;BME280_humidity;BME280_pressure;Samples;Min_cycle;Max_cycle;Signal;HPM_P1;HPM_P2
2022/06/08 00:00:15;;;;;;;0.10;0.10;;;16.00;1.00;;;;;;5074735;28;20197;-69
2022/06/08 00:02:45;;;;;;;0.08;0.08;;;16.10;1.00;;;;;;5076061;28;20198;-68
2022/06/08 00:05:13;;;;;;;0.00;0.00;;;16.10;1.00;;;;;;5072865;28;20226;-70
2022/06/08 00:07:42;;;;;;;0.00;0.00;;;16.10;1.00;;;;;;5063407;28;20201;-70
2022/06/08 00:10:10;;;;;;;0.00;0.00;;;16.20;1.00;;;;;;5073837;28;20228;-68
2022/06/08 00:12:38;;;;;;;0.00;0.00;;;16.30;1.00;;;;;;5066720;28;20217;-68
2022/06/08 00:15:08;;;;;;;0.00;0.00;;;16.30;1.00;;;;;;5059323;28;20283;-68
2022/06/08 00:17:35;;;;;;;0.00;0.00;;;16.40;1.00;;;;;;5075032;28;20225;-69
2022/06/08 00:20:04;;;;;;;0.00;0.00;;;16.40;1.00;;;;;;5075732;28;20194;-67
2022/06/08 00:22:32;;;;;;;0.00;0.00;;;16.40;1.00;;;;;;5074180;28;20767;-68
2022/06/08 00:25:01;;;;;;;0.00;0.00;;;16.40;1.00;;;;;;5073046;28;20274;-67
2022/06/08 00:27:29;;;;;;;0.00;0.00;;;16.40;1.00;;;;;;5073156;28;20681;-68
2022/06/08 00:29:57;;;;;;;0.00;0.00;;;16.40;1.00;;;;;;5067154;28;20395;-68
2022/06/08 00:32:25;;;;;;;0.00;0.00;;;16.50;1.00;;;;;;5069256;28;20195;-68
2022/06/08 00:34:53;;;;;;;0.00;0.00;;;16.50;1.00;;;;;;5072748;28;20218;-67
2022/06/08 00:37:23;;;;;;;0.00;0.00;;;16.50;1.00;;;;;;5071910;28;20194;-67
2022/06/08 00:39:51;;;;;;;0.00;0.00;;;16.50;1.00;;;;;;5069288;28;20203;-67
2022/06/08 00:42:21;;;;;;;0.00;0.00;;;16.50;1.00;;;;;;5071544;28;20213;-67
2022/06/08 00:44:52;;;;;;;0.00;0.00;;;16.50;1.00;;;;;;5068612;28;20665;-67
2022/06/08 00:47:26;;;;;;;0.00;0.00;;;16.50;1.00;;;;;;5068749;28;20204;-68
2022/06/08 00:49:58;;;;;;;0.00;0.00;;;16.50;1.00;;;;;;5061496;28;20700;-67
2022/06/08 00:52:28;;;;;;;0.00;0.00;;;16.40;1.00;;;;;;5053960;28;20681;-68
2022/06/08 00:55:03;;;;;;;0.00;0.00;;;16.40;99.90;;;;;;5058337;28;20301;-68
2022/06/08 00:57:37;;;;;;;0.00;0.00;;;16.30;99.90;;;;;;5068709;28;20564;-69
2022/06/08 01:00:11;;;;;;;0.00;0.00;;;16.20;99.90;;;;;;5067988;28;20205;-69
2022/06/08 01:02:39;;;;;;;0.00;0.00;;;16.10;99.90;;;;;;5065483;28;20263;-68
2022/06/08 01:05:20;;;;;;;0.10;0.10;;;16.10;1.00;;;;;;5054507;28;20296;-69
2022/06/08 01:07:51;;;;;;;0.00;0.00;;;16.10;1.00;;;;;;5068311;28;20662;-69
2022/06/08 01:10:23;;;;;;;0.00;0.00;;;16.00;1.00;;;;;;5055477;28;20252;-69
2022/06/08 01:12:54;;;;;;;0.00;0.00;;;16.00;1.00;;;;;;5072262;28;20212;-68
2022/06/08 01:15:26;;;;;;;0.00;0.00;;;16.00;1.00;;;;;;5071321;28;20339;-68
2022/06/08 01:17:55;;;;;;;0.10;0.10;;;16.00;1.00;;;;;;5066291;28;20685;-68
2022/06/08 01:20:23;;;;;;;0.00;0.00;;;16.00;1.00;;;;;;5064431;28;20193;-68
2022/06/08 01:22:53;;;;;;;0.00;0.00;;;15.90;1.00;;;;;;5070481;28;20680;-68
2022/06/08 01:25:21;;;;;;;0.00;0.00;;;15.90;1.00;;;;;;5070879;28;20245;-67
2022/06/08 01:28:09;;;;;;;0.00;0.00;;;16.10;1.00;;;;;;5059577;28;20197;-67
2022/06/08 01:30:50;;;;;;;0.00;0.00;;;16.00;1.00;;;;;;5070187;28;20878;-67
2022/06/08 01:33:42;;;;;;;0.00;0.00;;;15.90;1.00;;;;;;5069298;28;20657;-68
2022/06/08 01:36:29;;;;;;;0.00;0.00;;;16.00;1.00;;;;;;5070441;28;20210;-67
2022/06/08 01:39:05;;;;;;;0.00;0.00;;;16.10;1.00;;;;;;5071164;28;20196;-68
2022/06/08 01:42:08;;;;;;;0.00;0.00;;;16.00;1.00;;;;;;5068576;28;20703;-68
2022/06/08 01:45:28;;;;;;;0.00;0.00;;;16.10;1.00;;;;;;5068031;28;20256;-68
2022/06/08 01:47:45;;;;;;;0.00;0.00;;;16.00;1.00;;;;;;5069710;28;20706;-67
2022/06/08 01:50:41;;;;;;;0.08;0.08;;;16.00;1.00;;;;;;5069083;28;20698;-68
2022/06/08 01:53:20;;;;;;;0.00;0.00;;;15.90;1.00;;;;;;5071007;28;20194;-68
2022/06/08 01:55:55;;;;;;;0.00;0.00;;;16.00;1.00;;;;;;5050247;28;20217;-68
2022/06/08 01:58:30;;;;;;;0.00;0.00;;;15.90;99.90;;;;;;5062651;28;20610;-67
2022/06/08 02:01:10;;;;;;;0.00;0.00;;;15.90;99.90;;;;;;5070029;28;20193;-67
2022/06/08 02:03:44;;;;;;;0.00;0.00;;;15.90;99.90;;;;;;5059658;28;20588;-67
2022/06/08 02:06:22;;;;;;;0.00;0.00;;;15.80;99.90;;;;;;5071320;28;20247;-67
2022/06/08 02:08:57;;;;;;;0.00;0.00;;;15.80;99.90;;;;;;5069517;28;20601;-67
2022/06/08 02:11:34;;;;;;;0.00;0.00;;;15.80;99.90;;;;;;5066416;28;20688;-67
2022/06/08 02:14:06;;;;;;;0.10;0.10;;;15.80;99.90;;;;;;5050040;28;20264;-67
2022/06/08 02:16:44;;;;;;;0.00;0.00;;;15.90;99.90;;;;;;5050926;28;20637;-67
2022/06/08 02:19:18;;;;;;;0.03;0.03;;;15.90;99.90;;;;;;5056355;28;20194;-68
2022/06/08 02:21:52;;;;;;;0.00;0.00;;;15.90;99.90;;;;;;5069199;28;20248;-68
2022/06/08 02:24:24;;;;;;;0.00;0.00;;;16.00;99.90;;;;;;5068114;28;20216;-68
2022/06/08 02:26:58;;;;;;;0.00;0.00;;;15.90;99.90;;;;;;5064927;28;20206;-68
2022/06/08 02:29:32;;;;;;;0.00;0.00;;;16.00;99.90;;;;;;5054960;28;20255;-68
2022/06/08 02:32:03;;;;;;;0.00;0.00;;;16.00;99.90;;;;;;5052422;28;20232;-68
2022/06/08 02:34:37;;;;;;;0.05;0.05;;;15.90;1.00;;;;;;5066667;28;20637;-68
2022/06/08 02:37:11;;;;;;;0.00;0.00;;;16.00;1.00;;;;;;5069457;28;20263;-68
2022/06/08 02:39:43;;;;;;;0.00;0.00;;;15.90;1.00;;;;;;5069319;28;20198;-67
2022/06/08 02:42:18;;;;;;;0.10;0.10;;;15.80;1.00;;;;;;5069607;28;20742;-68
2022/06/08 02:44:51;;;;;;;0.00;0.00;;;15.90;1.00;;;;;;5069371;28;20323;-68
2022/06/08 02:47:29;;;;;;;0.00;0.00;;;15.80;1.00;;;;;;5068647;28;20280;-68
2022/06/08 02:50:00;;;;;;;0.00;0.00;;;15.90;1.00;;;;;;5069554;28;20205;-68
2022/06/08 02:52:31;;;;;;;0.05;0.05;;;15.90;1.00;;;;;;5069255;28;20312;-68
2022/06/08 02:55:00;;;;;;;0.00;0.00;;;15.90;1.00;;;;;;5069487;28;20291;-68
2022/06/08 02:57:41;;;;;;;0.00;0.00;;;15.80;1.00;;;;;;5068910;28;20589;-68
2022/06/08 03:00:15;;;;;;;0.00;0.00;;;15.90;1.00;;;;;;5068875;28;20284;-68
2022/06/08 03:02:49;;;;;;;0.00;0.00;;;15.90;1.00;;;;;;5056785;28;20194;-68
2022/06/08 03:05:23;;;;;;;0.00;0.00;;;15.90;1.00;;;;;;5069385;28;20264;-68
2022/06/08 03:07:56;;;;;;;0.00;0.00;;;15.90;1.00;;;;;;5068604;28;20660;-69
2022/06/08 03:10:27;;;;;;;0.10;0.10;;;15.90;1.00;;;;;;5071389;28;20225;-68
2022/06/08 03:13:01;;;;;;;0.00;0.00;;;15.80;1.00;;;;;;5067050;28;20317;-69
2022/06/08 03:15:29;;;;;;;0.00;0.00;;;15.70;1.00;;;;;;5053860;28;20218;-69
2022/06/08 03:17:58;;;;;;;0.00;0.00;;;15.60;1.00;;;;;;5057477;28;20201;-69
2022/06/08 03:20:27;;;;;;;0.00;0.00;;;15.70;1.00;;;;;;5053925;28;20194;-68
2022/06/08 03:22:56;;;;;;;0.00;0.00;;;15.60;1.00;;;;;;5052925;28;20674;-68
2022/06/08 03:25:30;;;;;;;0.00;0.00;;;15.60;1.00;;;;;;5064160;28;20224;-68
2022/06/08 03:27:59;;;;;;;0.00;0.00;;;15.60;1.00;;;;;;5073573;28;20202;-67
2022/06/08 03:30:28;;;;;;;0.10;0.10;;;15.40;1.00;;;;;;5072191;28;20198;-68
2022/06/08 03:32:58;;;;;;;0.00;0.00;;;15.40;1.00;;;;;;5072344;28;20746;-68
2022/06/08 03:35:26;;;;;;;0.00;0.00;;;15.20;1.00;;;;;;5063735;28;20218;-68
2022/06/08 03:37:54;;;;;;;0.00;0.00;;;15.10;1.00;;;;;;5061866;28;20690;-68
2022/06/08 03:40:27;;;;;;;0.00;0.00;;;15.00;1.00;;;;;;5068701;28;20210;-67
2022/06/08 03:42:55;;;;;;;0.00;0.00;;;15.00;1.00;;;;;;5071865;28;20753;-68
2022/06/08 03:45:26;;;;;;;0.00;0.00;;;15.00;1.00;;;;;;5066208;28;20225;-67
2022/06/08 03:47:54;;;;;;;0.00;0.00;;;15.00;1.00;;;;;;5078857;28;20245;-67
2022/06/08 03:50:28;;;;;;;0.00;0.00;;;14.90;1.00;;;;;;5051878;28;20206;-68
2022/06/08 03:53:00;;;;;;;0.10;0.10;;;14.90;1.00;;;;;;5054537;28;20726;-68
2022/06/08 03:55:31;;;;;;;0.00;0.00;;;15.10;1.00;;;;;;5069182;28;20225;-68
2022/06/08 03:58:02;;;;;;;0.00;0.00;;;15.10;1.00;;;;;;5064613;28;20215;-68
2022/06/08 04:00:36;;;;;;;0.00;0.00;;;14.90;1.00;;;;;;5055634;28;20205;-69
2022/06/08 04:03:10;;;;;;;0.00;0.00;;;15.00;1.00;;;;;;5071384;28;20223;-69
2022/06/08 04:05:39;;;;;;;0.00;0.00;;;15.10;1.00;;;;;;5073939;28;20665;-69
2022/06/08 04:08:13;;;;;;;0.00;0.00;;;15.10;1.00;;;;;;5071521;28;20283;-67
2022/06/08 04:10:48;;;;;;;0.00;0.00;;;15.20;1.00;;;;;;5071959;28;20197;-67
2022/06/08 04:13:18;;;;;;;0.00;0.00;;;15.30;1.00;;;;;;5071526;28;20253;-68
2022/06/08 04:15:49;;;;;;;0.00;0.00;;;15.30;1.00;;;;;;5071783;28;20243;-67
2022/06/08 04:18:27;;;;;;;0.10;0.10;;;15.30;1.00;;;;;;5070674;28;20204;-67
2022/06/08 04:21:02;;;;;;;0.00;0.00;;;15.30;1.00;;;;;;5071302;28;20715;-67
2022/06/08 04:23:40;;;;;;;0.00;0.00;;;15.20;6.40;;;;;;5071186;28;20275;-67
2022/06/08 04:26:09;;;;;;;0.00;0.00;;;15.20;38.50;;;;;;5071418;28;20205;-67
2022/06/08 04:28:38;;;;;;;0.00;0.00;;;15.20;67.10;;;;;;5071256;28;20204;-67
2022/06/08 04:31:13;;;;;;;0.00;0.00;;;15.30;38.30;;;;;;5071936;28;20292;-67
2022/06/08 04:33:46;;;;;;;0.00;0.00;;;15.30;50.50;;;;;;5071217;28;20255;-67
2022/06/08 04:36:20;;;;;;;0.00;0.00;;;15.20;99.90;;;;;;5073932;28;20204;-67
2022/06/08 04:38:48;;;;;;;0.10;0.10;;;15.30;99.90;;;;;;5071860;28;20202;-67
2022/06/08 04:41:17;;;;;;;0.00;0.00;;;15.30;99.90;;;;;;5071014;28;20692;-67
2022/06/08 04:43:47;;;;;;;0.10;0.10;;;15.30;99.90;;;;;;5071267;28;20222;-66
2022/06/08 04:46:17;;;;;;;0.03;0.03;;;15.40;99.90;;;;;;5070808;28;20225;-66
2022/06/08 04:48:49;;;;;;;0.00;0.00;;;15.40;99.90;;;;;;5063786;28;20202;-66
2022/06/08 04:51:21;;;;;;;0.00;0.00;;;15.50;99.90;;;;;;5068587;28;20201;-66
2022/06/08 04:53:51;;;;;;;0.10;0.10;;;15.40;99.90;;;;;;5067496;28;20254;-66
2022/06/08 04:56:20;;;;;;;0.00;0.00;;;15.50;99.90;;;;;;5055642;28;20607;-67
2022/06/08 04:58:54;;;;;;;0.10;0.10;;;15.50;99.90;;;;;;5050755;28;20305;-67
2022/06/08 05:01:25;;;;;;;0.00;0.00;;;15.60;99.90;;;;;;5063353;28;20202;-67
2022/06/08 05:03:54;;;;;;;0.00;0.00;;;15.60;99.90;;;;;;5068109;28;20606;-67
2022/06/08 05:06:22;;;;;;;0.10;0.10;;;15.70;99.90;;;;;;5060238;28;20255;-67
2022/06/08 05:08:51;;;;;;;0.10;0.10;;;15.70;99.90;;;;;;5071835;28;20304;-67
2022/06/08 05:11:22;;;;;;;0.00;0.00;;;15.80;99.90;;;;;;5074947;28;20221;-66
2022/06/08 05:13:51;;;;;;;0.00;0.00;;;15.90;99.90;;;;;;5071033;28;20259;-67
2022/06/08 05:16:20;;;;;;;0.10;0.10;;;15.90;99.90;;;;;;5070262;28;20225;-67
2022/06/08 05:18:53;;;;;;;0.08;0.08;;;16.00;99.90;;;;;;5069893;28;20205;-66
2022/06/08 05:21:21;;;;;;;0.00;0.00;;;16.10;99.90;;;;;;5070594;28;20240;-66
2022/06/08 05:23:51;;;;;;;0.00;0.00;;;16.20;99.90;;;;;;5068477;28;20222;-66
2022/06/08 05:26:26;;;;;;;0.00;0.00;;;16.30;99.90;;;;;;5069714;28;20562;-67
2022/06/08 05:28:53;;;;;;;0.00;0.00;;;16.40;99.90;;;;;;5070929;28;20264;-67
2022/06/08 05:31:29;;;;;;;0.00;0.00;;;16.50;99.90;;;;;;5069880;28;20644;-66
2022/06/08 05:33:59;;;;;;;0.10;0.10;;;16.60;99.90;;;;;;5086353;28;20270;-66
2022/06/08 05:36:28;;;;;;;0.03;0.03;;;16.70;99.90;;;;;;5069898;28;20197;-66
2022/06/08 05:38:59;;;;;;;0.00;0.00;;;16.80;99.90;;;;;;5069931;28;20198;-67
2022/06/08 05:41:32;;;;;;;0.00;0.00;;;16.90;99.90;;;;;;5069937;28;20225;-66
2022/06/08 05:44:01;;;;;;;0.00;0.00;;;16.90;99.90;;;;;;5069936;28;20738;-67
2022/06/08 05:46:29;;;;;;;0.00;0.00;;;17.10;99.90;;;;;;5060876;28;20647;-67
2022/06/08 05:49:04;;;;;;;0.00;0.00;;;17.10;93.70;;;;;;5049886;28;20585;-67
2022/06/08 05:51:35;;;;;;;0.00;0.00;;;17.00;99.90;;;;;;5050417;28;20264;-66
2022/06/08 05:54:04;;;;;;;0.00;0.00;;;16.90;99.90;;;;;;5063095;28;20230;-66
2022/06/08 05:56:33;;;;;;;0.00;0.00;;;16.90;99.90;;;;;;5069495;28;20676;-66
2022/06/08 05:59:04;;;;;;;0.00;0.00;;;16.80;99.90;;;;;;5070023;28;20205;-66
2022/06/08 06:01:35;;;;;;;0.10;0.10;;;16.70;99.90;;;;;;5069696;28;20681;-66
2022/06/08 06:04:07;;;;;;;0.00;0.00;;;16.80;99.90;;;;;;5068912;28;20251;-66
2022/06/08 06:06:38;;;;;;;0.00;0.00;;;16.80;99.90;;;;;;5070041;28;20205;-66
2022/06/08 06:09:06;;;;;;;0.00;0.00;;;16.90;99.90;;;;;;5068691;28;20205;-67
2022/06/08 06:11:35;;;;;;;0.00;0.00;;;16.90;99.90;;;;;;5067578;28;20206;-67
2022/06/08 06:14:03;;;;;;;0.10;0.10;;;16.90;99.90;;;;;;5068023;28;20218;-66
2022/06/08 06:16:32;;;;;;;0.10;0.10;;;16.90;99.90;;;;;;5069155;28;20208;-66
2022/06/08 06:19:00;;;;;;;0.00;0.00;;;16.80;99.90;;;;;;5069032;28;20193;-67
2022/06/08 06:21:34;;;;;;;0.10;0.10;;;16.70;99.90;;;;;;5058656;28;20206;-69
2022/06/08 06:24:20;;;;;;;0.00;0.00;;;16.60;99.90;;;;;;5056509;28;20308;-67
2022/06/08 06:27:06;;;;;;;0.05;0.05;;;16.60;99.90;;;;;;5069446;28;20238;-66
2022/06/08 06:29:52;;;;;;;0.00;0.00;;;16.70;99.90;;;;;;5070713;28;20216;-67
2022/06/08 06:32:59;;;;;;;0.00;0.00;;;16.70;99.90;;;;;;5066184;28;20206;-67
2022/06/08 06:35:29;;;;;;;0.00;0.00;;;16.90;99.90;;;;;;5051173;28;20214;-67
2022/06/08 06:38:07;;;;;;;0.00;0.00;;;16.90;99.90;;;;;;5048898;28;20709;-67
2022/06/08 06:40:38;;;;;;;0.00;0.00;;;16.90;99.90;;;;;;5050023;28;20232;-67
2022/06/08 06:43:07;;;;;;;0.00;0.00;;;17.00;99.90;;;;;;5066097;28;20670;-66
2022/06/08 06:45:41;;;;;;;0.10;0.10;;;17.10;99.90;;;;;;5063939;28;20319;-67
2022/06/08 06:48:22;;;;;;;0.00;0.00;;;17.10;99.90;;;;;;5072545;28;20236;-66
2022/06/08 06:50:50;;;;;;;0.10;0.10;;;17.10;99.90;;;;;;5069968;28;20206;-67
2022/06/08 06:53:19;;;;;;;0.00;0.00;;;17.10;99.90;;;;;;5052917;28;20588;-67
2022/06/08 06:55:55;;;;;;;0.00;0.00;;;17.20;99.90;;;;;;5070482;28;20204;-67
2022/06/08 06:58:28;;;;;;;0.00;0.00;;;17.30;99.90;;;;;;5072911;28;20271;-67
2022/06/08 07:01:00;;;;;;;0.00;0.00;;;17.20;99.90;;;;;;5071782;28;20194;-69
2022/06/08 07:03:31;;;;;;;0.00;0.00;;;17.20;99.90;;;;;;5052556;28;20210;-69
2022/06/08 07:06:00;;;;;;;0.10;0.10;;;17.30;99.90;;;;;;5072903;28;20226;-69
2022/06/08 07:08:29;;;;;;;0.00;0.00;;;17.40;99.90;;;;;;5072812;28;20208;-68
2022/06/08 07:13:47;;;;;;;0.00;0.00;;;17.30;99.90;;;;;;5065760;28;20221;-68
2022/06/08 07:16:16;;;;;;;0.00;0.00;;;17.30;99.90;;;;;;5063321;28;20252;-68
2022/06/08 07:18:44;;;;;;;0.00;0.00;;;17.40;99.90;;;;;;5071768;28;20193;-69
2022/06/08 07:21:13;;;;;;;0.00;0.00;;;17.30;99.90;;;;;;5065772;28;20573;-68
2022/06/08 07:23:42;;;;;;;0.00;0.00;;;17.40;99.90;;;;;;5076174;28;20712;-68
2022/06/08 07:26:10;;;;;;;0.00;0.00;;;17.50;99.90;;;;;;5093884;28;20225;-69
2022/06/08 07:28:38;;;;;;;0.00;0.00;;;17.60;6.00;;;;;;5093607;28;20189;-69
2022/06/08 07:31:07;;;;;;;0.10;0.10;;;17.70;1.00;;;;;;5070758;28;20206;-69
2022/06/08 07:33:35;;;;;;;0.00;0.00;;;17.90;1.00;;;;;;5072729;28;20587;-69
2022/06/08 07:36:04;;;;;;;0.05;0.05;;;17.80;1.00;;;;;;5072603;28;20197;-69
2022/06/08 07:38:32;;;;;;;0.00;0.00;;;17.80;1.00;;;;;;5071205;28;20580;-69
2022/06/08 07:41:01;;;;;;;0.00;0.00;;;17.90;1.00;;;;;;5069510;28;20232;-69
2022/06/08 07:43:29;;;;;;;0.00;0.00;;;17.90;1.00;;;;;;5057867;28;20344;-69
2022/06/08 07:45:57;;;;;;;0.00;0.00;;;17.90;1.00;;;;;;5069410;28;20216;-69
2022/06/08 07:51:12;;;;;;;0.00;0.00;;;18.00;1.00;;;;;;5073157;28;20567;-69
2022/06/08 07:53:40;;;;;;;0.00;0.00;;;18.00;1.00;;;;;;5072803;28;20229;-70
2022/06/08 07:56:09;;;;;;;0.00;0.00;;;18.20;1.00;;;;;;5072564;28;20205;-69
2022/06/08 07:58:37;;;;;;;0.00;0.00;;;18.40;1.00;;;;;;5072843;28;20198;-69
2022/06/08 08:01:05;;;;;;;0.00;0.00;;;18.70;1.00;;;;;;5073104;28;20208;-69
2022/06/08 08:03:34;;;;;;;0.00;0.00;;;19.10;1.00;;;;;;5072582;28;20704;-69
2022/06/08 08:06:02;;;;;;;0.00;0.00;;;19.40;99.90;;;;;;5072720;28;20194;-69
2022/06/08 08:08:30;;;;;;;0.00;0.00;;;19.60;1.00;;;;;;5069478;28;20197;-69
2022/06/08 08:10:57;;;;;;;0.00;0.00;;;19.90;1.00;;;;;;5062216;28;20594;-70
2022/06/08 08:13:27;;;;;;;0.00;0.00;;;20.20;1.00;;;;;;5072152;28;20205;-69
2022/06/08 08:15:54;;;;;;;0.00;0.00;;;20.40;62.70;;;;;;5072084;28;20198;-69
2022/06/08 08:18:22;;;;;;;0.00;0.00;;;20.50;1.00;;;;;;5071756;28;20267;-69
2022/06/08 08:20:50;;;;;;;0.00;0.00;;;20.40;1.00;;;;;;5072615;28;20194;-69
2022/06/08 08:23:19;;;;;;;0.00;0.00;;;20.50;1.00;;;;;;5072154;28;20197;-69
2022/06/08 08:25:47;;;;;;;0.00;0.00;;;20.40;99.90;;;;;;5072378;28;20626;-69
2022/06/08 08:28:14;;;;;;;0.00;0.00;;;20.60;99.90;;;;;;5071288;28;20205;-69
2022/06/08 08:30:43;;;;;;;0.00;0.00;;;20.50;99.90;;;;;;5070762;28;20200;-69
2022/06/08 08:33:11;;;;;;;0.00;0.00;;;20.90;99.90;;;;;;5072459;28;20220;-69
2022/06/08 08:35:39;;;;;;;0.00;0.00;;;21.10;1.00;;;;;;5063560;28;20287;-69
2022/06/08 08:38:08;;;;;;;0.00;0.00;;;21.40;1.00;;;;;;5059729;28;20232;-69
2022/06/08 08:40:45;;;;;;;0.00;0.00;;;21.70;1.00;;;;;;5053973;28;20221;-69
2022/06/08 08:43:16;;;;;;;0.00;0.00;;;21.90;95.70;;;;;;5069622;28;20205;-69
2022/06/08 08:46:05;;;;;;;0.00;0.00;;;22.10;99.90;;;;;;5068026;28;20212;-69
2022/06/08 08:48:47;;;;;;;0.00;0.00;;;22.40;1.00;;;;;;5059241;28;20213;-69
2022/06/08 08:51:19;;;;;;;0.00;0.00;;;22.20;1.00;;;;;;5067326;28;20232;-69
2022/06/08 08:54:03;;;;;;;0.00;0.00;;;21.70;1.00;;;;;;5071935;28;20252;-69
2022/06/08 08:56:37;;;;;;;0.00;0.00;;;21.60;1.00;;;;;;5071742;28;20576;-69
2022/06/08 08:59:13;;;;;;;0.00;0.00;;;21.50;1.00;;;;;;5051752;28;20231;-69
2022/06/08 09:01:45;;;;;;;0.00;0.00;;;21.80;1.00;;;;;;5051402;28;20194;-69
2022/06/08 09:04:23;;;;;;;0.00;0.00;;;22.10;1.00;;;;;;5057249;28;20214;-69
2022/06/08 09:06:51;;;;;;;0.00;0.00;;;22.40;99.90;;;;;;5067028;28;20198;-69
2022/06/08 09:09:22;;;;;;;0.00;0.00;;;22.40;99.90;;;;;;5053777;28;20209;-69
2022/06/08 09:11:50;;;;;;;0.00;0.00;;;22.10;99.90;;;;;;5057890;28;20209;-69
2022/06/08 09:14:51;;;;;;;0.00;0.00;;;22.00;99.90;;;;;;5071078;28;20229;-69
2022/06/08 09:17:29;;;;;;;0.00;0.00;;;21.90;99.90;;;;;;5070407;28;20201;-69
2022/06/08 09:19:58;;;;;;;0.00;0.00;;;21.90;99.90;;;;;;5069754;28;20603;-69
2022/06/08 09:22:29;;;;;;;0.00;0.00;;;21.90;99.90;;;;;;5066726;28;20204;-69
2022/06/08 09:24:59;;;;;;;0.00;0.00;;;21.80;99.90;;;;;;5051490;28;20214;-69
2022/06/08 09:27:29;;;;;;;0.00;0.00;;;21.90;99.90;;;;;;5063048;28;20542;-69
2022/06/08 09:30:12;;;;;;;0.00;0.00;;;21.80;99.90;;;;;;5071378;28;20247;-69
2022/06/08 09:32:49;;;;;;;0.00;0.00;;;21.80;99.90;;;;;;5071326;28;20209;-69
2022/06/08 09:35:26;;;;;;;0.00;0.00;;;22.10;99.90;;;;;;5071195;28;20719;-69
2022/06/08 09:37:57;;;;;;;0.00;0.00;;;22.30;99.90;;;;;;5071094;28;20194;-69
2022/06/08 09:40:38;;;;;;;0.00;0.00;;;22.70;99.90;;;;;;5052822;28;20202;-69
2022/06/08 09:43:25;;;;;;;0.00;0.00;;;22.70;99.90;;;;;;5051077;28;20274;-69
2022/06/08 09:45:55;;;;;;;0.00;0.00;;;22.70;79.40;;;;;;5061716;28;20597;-69
2022/06/08 09:51:57;;;;;;;0.00;0.00;;;22.60;54.50;;;;;;5064941;28;20661;-69
2022/06/08 09:54:39;;;;;;;0.00;0.00;;;22.40;62.60;;;;;;5056160;28;20233;-69
2022/06/08 09:57:21;;;;;;;0.00;0.00;;;22.30;97.20;;;;;;5052254;28;20682;-69
2022/06/08 10:00:11;;;;;;;0.00;0.00;;;22.50;45.20;;;;;;5069144;28;20621;-69
2022/06/08 10:02:54;;;;;;;0.00;0.00;;;22.60;6.40;;;;;;5063396;28;20234;-69
2022/06/08 10:05:30;;;;;;;0.00;0.00;;;22.90;6.00;;;;;;5070209;28;20220;-69
2022/06/08 10:08:12;;;;;;;0.00;0.00;;;22.90;7.50;;;;;;5070311;28;20193;-69
2022/06/08 10:10:45;;;;;;;0.00;0.00;;;22.80;7.30;;;;;;5070879;28;20209;-69
2022/06/08 10:13:19;;;;;;;0.00;0.00;;;22.90;1.40;;;;;;5070769;28;20197;-69
2022/06/08 10:15:50;;;;;;;0.00;0.00;;;22.70;1.00;;;;;;5071349;28;20588;-69
2022/06/08 10:18:21;;;;;;;0.00;0.00;;;22.60;1.00;;;;;;5068552;28;20241;-69
2022/06/08 10:20:54;;;;;;;0.00;0.00;;;22.70;1.00;;;;;;5074400;28;20263;-69
2022/06/08 10:23:28;;;;;;;0.00;0.00;;;22.60;1.00;;;;;;5073495;28;20220;-69
2022/06/08 10:26:01;;;;;;;0.00;0.00;;;22.80;1.00;;;;;;5075156;28;20200;-69
2022/06/08 10:28:36;;;;;;;0.00;0.00;;;22.70;1.00;;;;;;5074047;28;20213;-70
2022/06/08 10:31:12;;;;;;;0.00;0.00;;;22.60;1.00;;;;;;5074913;28;20196;-69
2022/06/08 10:33:46;;;;;;;0.00;0.00;;;22.50;1.00;;;;;;5073548;28;20308;-69
2022/06/08 10:36:17;;;;;;;0.00;0.00;;;22.50;1.00;;;;;;5073628;28;20221;-69
2022/06/08 10:38:45;;;;;;;0.00;0.00;;;22.80;1.00;;;;;;5076126;28;20197;-69
2022/06/08 10:44:28;;;;;;;0.00;0.00;;;23.40;1.00;;;;;;5075617;28;20268;-69
2022/06/08 10:47:07;;;;;;;0.00;0.00;;;23.60;1.00;;;;;;5076781;28;20665;-69
2022/06/08 10:49:50;;;;;;;0.00;0.00;;;23.60;1.00;;;;;;5074461;28;20193;-70
2022/06/08 10:52:40;;;;;;;0.00;0.00;;;23.50;1.00;;;;;;5074556;28;20190;-69
2022/06/08 10:55:33;;;;;;;0.00;0.00;;;23.90;1.00;;;;;;5073420;28;20218;-69
2022/06/08 10:58:09;;;;;;;0.00;0.00;;;24.00;1.00;;;;;;5074177;28;20195;-69
2022/06/08 11:01:07;;;;;;;0.00;0.00;;;23.90;1.00;;;;;;5073414;28;20205;-68
2022/06/08 11:03:56;;;;;;;0.00;0.00;;;23.30;1.00;;;;;;5073672;28;20233;-68
2022/06/08 11:06:55;;;;;;;0.00;0.00;;;23.30;1.00;;;;;;5073678;28;20196;-68
2022/06/08 11:09:48;;;;;;;0.00;0.00;;;23.20;1.00;;;;;;5073826;28;20202;-68
2022/06/08 11:12:46;;;;;;;0.00;0.00;;;23.20;1.00;;;;;;5074109;28;20193;-68
2022/06/08 11:15:27;;;;;;;0.00;0.00;;;23.60;1.00;;;;;;5073791;28;20217;-68
2022/06/08 11:18:00;;;;;;;0.00;0.00;;;23.60;1.00;;;;;;5074118;28;20196;-70
2022/06/08 11:20:37;;;;;;;0.00;0.00;;;23.40;1.00;;;;;;5073445;28;20189;-68
2022/06/08 11:23:12;;;;;;;0.00;0.00;;;23.50;1.00;;;;;;5073933;28;20259;-69
2022/06/08 11:25:50;;;;;;;0.00;0.00;;;23.50;1.00;;;;;;5073652;28;20207;-69
2022/06/08 11:28:32;;;;;;;0.00;0.00;;;23.50;1.00;;;;;;5073623;28;20201;-69
2022/06/08 11:31:03;;;;;;;0.00;0.00;;;23.70;1.00;;;;;;5072325;28;20202;-70
2022/06/08 11:33:51;;;;;;;0.00;0.00;;;23.80;1.00;;;;;;5053664;28;20218;-68
2022/06/08 11:36:40;;;;;;;0.00;0.00;;;23.50;1.00;;;;;;5069036;28;20214;-69
2022/06/08 11:39:20;;;;;;;0.00;0.00;;;23.50;1.00;;;;;;5063273;28;20206;-68
2022/06/08 11:42:00;;;;;;;0.00;0.00;;;23.50;1.00;;;;;;5066809;28;20209;-68
2022/06/08 11:44:34;;;;;;;0.00;0.00;;;23.30;1.00;;;;;;5053274;28;20229;-69
2022/06/08 11:47:14;;;;;;;0.00;0.00;;;23.20;1.00;;;;;;5063885;28;20202;-68
2022/06/08 11:49:44;;;;;;;0.00;0.00;;;23.10;1.00;;;;;;5063160;28;20695;-68
2022/06/08 11:52:27;;;;;;;0.00;0.00;;;23.20;1.00;;;;;;5069938;28;20220;-70
2022/06/08 11:55:10;;;;;;;0.00;0.00;;;23.30;1.00;;;;;;5074668;28;20229;-68
2022/06/08 11:57:42;;;;;;;0.00;0.00;;;23.20;1.00;;;;;;5069620;28;20774;-68
2022/06/08 12:00:30;;;;;;;0.00;0.00;;;23.10;1.00;;;;;;5056750;28;20670;-68
2022/06/08 12:03:01;;;;;;;0.00;0.00;;;23.10;1.00;;;;;;5073651;28;20247;-68
2022/06/08 12:05:32;;;;;;;0.00;0.00;;;22.90;1.00;;;;;;5072902;28;20221;-68
2022/06/08 12:08:08;;;;;;;0.00;0.00;;;22.90;1.00;;;;;;5063111;28;20206;-68
2022/06/08 12:10:59;;;;;;;0.00;0.00;;;22.80;1.00;;;;;;5057887;28;20205;-68
2022/06/08 12:13:28;;;;;;;0.00;0.00;;;23.10;1.00;;;;;;5072432;28;20200;-68
2022/06/08 12:15:57;;;;;;;0.00;0.00;;;23.20;1.00;;;;;;5073004;28;20206;-68
2022/06/08 12:18:31;;;;;;;0.00;0.00;;;23.60;1.00;;;;;;5072565;28;20668;-68
2022/06/08 12:21:06;;;;;;;0.00;0.00;;;23.90;1.00;;;;;;5067091;28;20206;-68
2022/06/08 12:23:40;;;;;;;0.00;0.00;;;24.40;1.00;;;;;;5055704;28;20229;-68
2022/06/08 12:26:17;;;;;;;0.00;0.00;;;24.70;1.00;;;;;;5069440;28;20557;-69
2022/06/08 12:28:50;;;;;;;0.00;0.00;;;24.90;1.00;;;;;;5068975;28;20201;-68
2022/06/08 12:31:28;;;;;;;0.00;0.00;;;24.60;1.00;;;;;;5068275;28;20255;-68
2022/06/08 12:33:56;;;;;;;0.00;0.00;;;24.40;1.00;;;;;;5072577;28;20304;-68
2022/06/08 12:36:28;;;;;;;0.00;0.00;;;24.20;1.00;;;;;;5061378;28;20313;-69
2022/06/08 12:39:04;;;;;;;0.00;0.00;;;24.00;1.00;;;;;;5067549;28;20190;-69
2022/06/08 12:41:41;;;;;;;0.00;0.00;;;23.80;1.00;;;;;;5072193;28;20197;-69
2022/06/08 12:44:18;;;;;;;0.00;0.00;;;23.90;1.00;;;;;;5072074;28;20217;-68
2022/06/08 12:46:53;;;;;;;0.00;0.00;;;24.00;1.00;;;;;;5072425;28;20235;-68
2022/06/08 12:49:24;;;;;;;0.00;0.00;;;24.00;1.00;;;;;;5068752;28;20220;-69
2022/06/08 12:51:56;;;;;;;0.00;0.00;;;24.00;1.00;;;;;;5057779;28;20206;-68
2022/06/08 12:54:29;;;;;;;0.00;0.00;;;24.00;1.00;;;;;;5069660;28;20237;-68
2022/06/08 12:57:16;;;;;;;0.00;0.00;;;24.00;1.00;;;;;;5064287;28;20226;-68
2022/06/08 12:59:48;;;;;;;0.00;0.00;;;23.90;1.00;;;;;;5064183;28;20213;-68
2022/06/08 13:02:18;;;;;;;0.00;0.00;;;23.60;1.00;;;;;;5070440;28;20578;-68
2022/06/08 13:04:48;;;;;;;0.00;0.00;;;23.80;1.00;;;;;;5069579;28;20222;-68
2022/06/08 13:07:32;;;;;;;0.00;0.00;;;23.70;1.00;;;;;;5071742;28;20215;-69
2022/06/08 13:10:00;;;;;;;0.00;0.00;;;23.40;1.00;;;;;;5067551;28;20194;-68
2022/06/08 13:12:32;;;;;;;0.00;0.00;;;23.70;1.00;;;;;;5071732;28;20200;-68
2022/06/08 13:15:01;;;;;;;0.00;0.00;;;23.70;1.00;;;;;;5066602;28;20210;-69
2022/06/08 13:17:30;;;;;;;0.00;0.00;;;23.90;1.00;;;;;;5061224;28;20225;-69
2022/06/08 13:19:58;;;;;;;0.00;0.00;;;24.00;1.00;;;;;;5071493;28;20193;-69
2022/06/08 13:22:26;;;;;;;0.00;0.00;;;24.10;1.00;;;;;;5071253;28;20726;-68
2022/06/08 13:24:55;;;;;;;0.00;0.00;;;24.10;1.00;;;;;;5071772;28;20239;-68
2022/06/08 13:27:22;;;;;;;0.00;0.00;;;23.90;1.00;;;;;;5069779;28;20205;-68
2022/06/08 13:29:50;;;;;;;0.00;0.00;;;24.00;1.00;;;;;;5071108;28;20201;-68
2022/06/08 13:32:21;;;;;;;0.00;0.00;;;23.60;1.00;;;;;;5071583;28;20197;-69
2022/06/08 13:34:49;;;;;;;0.00;0.00;;;23.60;1.00;;;;;;5069691;28;20221;-68
2022/06/08 13:37:34;;;;;;;0.00;0.00;;;23.60;1.00;;;;;;5070144;28;20220;-68